createdAt,value
2017-11-01T00:01:40.296Z,69.50
2017-11-01T00:04:08.485Z,69.50
2017-11-01T00:06:36.657Z,69.50
2017-11-01T00:09:04.866Z,69.60
2017-11-01T00:11:33.044Z,69.60
2017-11-01T00:14:01.237Z,69.60
2017-11-01T00:16:29.401Z,69.50
2017-11-01T00:18:57.563Z,69.70
2017-11-01T00:21:25.838Z,69.90
2017-11-01T00:23:54.013Z,69.80
2017-11-01T00:26:22.218Z,69.60
2017-11-01T00:28:50.411Z,69.40
2017-11-01T00:31:18.605Z,69.30
2017-11-01T00:33:46.825Z,69.30
2017-11-01T00:36:14.996Z,69.20
2017-11-01T00:38:43.301Z,69.30
2017-11-01T00:41:11.481Z,69.20
2017-11-01T00:43:39.641Z,69.20
2017-11-01T00:46:07.833Z,69.30
2017-11-01T00:48:36.028Z,69.40
2017-11-01T00:51:04.232Z,69.50
2017-11-01T00:53:32.427Z,70.10
2017-11-01T00:56:00.717Z,69.50
2017-11-01T00:58:28.897Z,69.50
2017-11-01T01:00:57.092Z,69.50
2017-11-01T01:03:25.268Z,69.60
2017-11-01T01:05:53.440Z,69.60
2017-11-01T01:08:21.647Z,69.60
2017-11-01T01:10:49.810Z,69.70
2017-11-01T01:13:18.884Z,69.60
2017-11-01T01:15:47.056Z,69.60
2017-11-01T01:18:15.232Z,69.60
2017-11-01T01:20:43.424Z,69.80
2017-11-01T01:23:12.387Z,69.80
2017-11-01T01:25:40.602Z,69.80
2017-11-01T01:28:09.546Z,70.00
2017-11-01T01:30:37.840Z,70.00
2017-11-01T01:33:06.013Z,69.80
2017-11-01T01:35:34.205Z,70.00
2017-11-01T01:38:03.229Z,69.90
2017-11-01T01:40:31.405Z,69.90
2017-11-01T01:42:59.567Z,69.90
2017-11-01T01:45:27.870Z,70.00
2017-11-01T01:47:56.110Z,70.00
2017-11-01T01:50:24.282Z,70.10
2017-11-01T01:52:53.256Z,69.90
2017-11-01T01:55:21.428Z,69.90
2017-11-01T01:57:49.623Z,70.60
2017-11-01T02:00:17.802Z,69.90
2017-11-01T02:02:46.117Z,69.80
2017-11-01T02:05:14.265Z,70.00
2017-11-01T02:07:42.451Z,69.90
2017-11-01T02:12:58.869Z,70.00
2017-11-01T02:18:16.195Z,70.40
2017-11-01T02:20:44.529Z,70.40
2017-11-01T02:23:12.749Z,70.50
2017-11-01T02:25:40.922Z,70.30
2017-11-01T02:28:09.104Z,70.50
2017-11-01T02:30:38.053Z,70.40
2017-11-01T02:33:06.984Z,70.40
2017-11-01T02:35:35.179Z,70.50
2017-11-01T02:38:03.360Z,70.60
2017-11-01T02:40:31.659Z,70.60
2017-11-01T02:42:59.864Z,70.60
2017-11-01T02:45:28.040Z,70.60
2017-11-01T02:47:56.240Z,70.80
2017-11-01T02:50:24.412Z,70.80
2017-11-01T02:52:52.739Z,70.70
2017-11-01T02:55:21.702Z,70.80
2017-11-01T02:57:49.912Z,70.80
2017-11-01T03:00:18.883Z,70.80
2017-11-01T03:02:47.054Z,70.80
2017-11-01T03:05:15.262Z,70.70
2017-11-01T03:07:44.196Z,70.60
2017-11-01T03:10:12.529Z,70.70
2017-11-01T03:12:41.509Z,70.30
2017-11-01T03:15:09.676Z,70.30
2017-11-01T03:17:37.884Z,70.40
2017-11-01T03:20:06.081Z,70.50
2017-11-01T03:22:34.252Z,70.50
2017-11-01T03:25:02.463Z,70.50
2017-11-01T03:27:30.648Z,70.40
2017-11-01T03:29:58.944Z,70.50
2017-11-01T03:32:27.117Z,70.80
2017-11-01T03:34:56.088Z,70.70
2017-11-01T03:37:24.261Z,70.70
2017-11-01T03:39:52.463Z,70.70
2017-11-01T03:42:21.396Z,71.00
2017-11-01T03:44:49.578Z,71.00
2017-11-01T03:47:17.873Z,70.80
2017-11-01T03:49:46.053Z,70.80
2017-11-01T03:52:14.264Z,70.60
2017-11-01T03:54:42.439Z,70.70
2017-11-01T03:57:10.598Z,70.70
2017-11-01T03:59:38.780Z,70.70
2017-11-01T04:02:06.987Z,70.70
2017-11-01T04:04:35.313Z,70.80
2017-11-01T04:07:04.253Z,70.80
2017-11-01T04:09:32.464Z,70.80
2017-11-01T04:12:00.631Z,70.80
2017-11-01T04:14:28.832Z,70.90
2017-11-01T04:16:57.040Z,71.10
2017-11-01T04:19:25.970Z,71.20
2017-11-01T04:21:54.289Z,71.20
2017-11-01T04:24:22.455Z,71.00
2017-11-01T04:26:51.432Z,70.80
2017-11-01T04:29:19.609Z,70.70
2017-11-01T04:31:48.547Z,71.10
2017-11-01T04:34:16.749Z,71.00
2017-11-01T04:36:44.919Z,70.90
2017-11-01T04:39:13.152Z,70.90
2017-11-01T04:41:41.319Z,70.80
2017-11-01T04:44:09.491Z,70.70
2017-11-01T04:46:37.683Z,70.60
2017-11-01T04:49:05.857Z,70.50
2017-11-01T04:51:34.063Z,70.60
2017-11-01T04:54:02.228Z,70.70
2017-11-01T04:56:30.535Z,70.70
2017-11-01T04:58:58.693Z,70.80
2017-11-01T05:01:26.877Z,71.00
2017-11-01T05:03:55.081Z,70.90
2017-11-01T05:06:24.013Z,71.40
2017-11-01T05:08:52.206Z,71.40
2017-11-01T05:11:20.444Z,71.30
2017-11-01T05:13:48.615Z,72.30
2017-11-01T05:16:16.926Z,72.00
2017-11-01T05:18:45.096Z,72.20
2017-11-01T05:21:13.301Z,72.20
2017-11-01T05:23:42.267Z,72.20
2017-11-01T05:26:10.432Z,72.10
2017-11-01T05:28:38.632Z,72.20
2017-11-01T05:31:06.807Z,72.30
2017-11-01T05:33:35.125Z,72.30
2017-11-01T05:36:03.313Z,72.40
2017-11-01T05:38:31.493Z,72.40
2017-11-01T05:40:59.704Z,72.40
2017-11-01T05:43:27.877Z,72.30
2017-11-01T05:45:56.087Z,72.20
2017-11-01T05:48:24.264Z,72.20
2017-11-01T05:50:52.444Z,72.10
2017-11-01T05:53:20.753Z,72.30
2017-11-01T05:55:48.930Z,72.30
2017-11-01T05:58:17.106Z,72.40
2017-11-01T06:00:45.288Z,72.40
2017-11-01T06:03:13.477Z,72.90
2017-11-01T06:05:41.680Z,73.30
2017-11-01T06:08:09.856Z,73.20
2017-11-01T06:10:38.176Z,73.20
2017-11-01T06:13:06.348Z,73.30
2017-11-01T06:15:34.532Z,73.30
2017-11-01T06:18:02.710Z,73.50
2017-11-01T06:20:30.893Z,73.50
2017-11-01T06:22:59.087Z,74.10
2017-11-01T06:25:28.068Z,74.20
2017-11-01T06:27:56.372Z,74.20
2017-11-01T06:30:24.564Z,74.10
2017-11-01T06:32:52.737Z,74.10
2017-11-01T06:35:20.956Z,74.00
2017-11-01T06:37:49.141Z,74.00
2017-11-01T06:40:18.089Z,74.50
2017-11-01T06:42:46.272Z,73.80
2017-11-01T06:45:14.450Z,74.40
2017-11-01T06:47:42.766Z,74.80
2017-11-01T06:50:11.715Z,74.70
2017-11-01T06:52:39.922Z,74.70
2017-11-01T06:55:08.126Z,74.80
2017-11-01T06:57:36.336Z,75.30
2017-11-01T07:00:04.515Z,75.10
2017-11-01T07:02:32.707Z,75.30
2017-11-01T07:05:01.026Z,75.80
2017-11-01T07:07:29.202Z,75.90
2017-11-01T07:09:57.408Z,76.00
2017-11-01T07:12:25.583Z,75.80
2017-11-01T07:14:53.760Z,75.70
2017-11-01T07:17:21.950Z,75.70
2017-11-01T07:26:05.332Z,75.90
2017-11-01T07:28:33.543Z,75.80
2017-11-01T07:31:01.713Z,76.10
2017-11-01T07:33:29.923Z,76.10
2017-11-01T07:35:58.097Z,76.10
2017-11-01T07:38:26.434Z,76.20
2017-11-01T07:40:54.636Z,76.10
2017-11-01T07:43:22.852Z,76.10
2017-11-01T07:45:51.025Z,76.00
2017-11-01T07:48:19.195Z,75.90
2017-11-01T07:50:47.400Z,75.80
2017-11-01T07:53:16.344Z,76.10
2017-11-01T07:55:44.506Z,75.90
2017-11-01T07:58:12.830Z,75.90
2017-11-01T08:00:41.005Z,75.80
2017-11-01T08:03:09.333Z,76.10
2017-11-01T08:05:37.509Z,76.30
2017-11-01T08:08:05.696Z,76.30
2017-11-01T08:10:33.928Z,75.80
2017-11-01T08:13:02.100Z,76.00
2017-11-01T08:15:30.329Z,76.10
2017-11-01T08:17:58.517Z,76.30
2017-11-01T08:20:26.726Z,76.20
2017-11-01T08:22:54.933Z,75.70
2017-11-01T08:25:23.140Z,75.80
2017-11-01T08:27:51.317Z,75.90
2017-11-01T08:30:19.547Z,76.30
2017-11-01T08:32:47.724Z,76.10
2017-11-01T08:35:15.948Z,76.60
2017-11-01T08:37:44.896Z,76.60
2017-11-01T08:40:13.140Z,76.30
2017-11-01T08:42:41.330Z,76.90
2017-11-01T08:45:09.539Z,77.50
2017-11-01T08:47:37.860Z,77.20
2017-11-01T08:50:06.076Z,76.90
2017-11-01T08:52:34.264Z,76.50
2017-11-01T08:55:02.509Z,76.10
2017-11-01T08:57:30.680Z,76.30
2017-11-01T08:59:58.872Z,76.60
2017-11-01T09:02:27.280Z,76.00
2017-11-01T09:04:55.439Z,76.10
2017-11-01T09:07:23.669Z,75.40
2017-11-01T09:09:51.889Z,75.60
2017-11-01T09:12:20.091Z,76.30
2017-11-01T09:14:48.298Z,76.00
2017-11-01T09:17:16.468Z,75.60
2017-11-01T09:19:44.700Z,75.10
2017-11-01T09:22:12.890Z,75.00
2017-11-01T09:24:41.857Z,74.30
2017-11-01T09:27:10.040Z,74.30
2017-11-01T09:29:38.237Z,74.90
2017-11-01T09:32:07.202Z,74.90
2017-11-01T09:34:35.527Z,74.80
2017-11-01T09:37:03.710Z,75.30
2017-11-01T09:39:31.906Z,73.20
2017-11-01T09:42:00.108Z,74.60
2017-11-01T09:44:28.374Z,74.60
2017-11-01T09:46:56.538Z,74.90
2017-11-01T09:49:24.714Z,74.90
2017-11-01T09:51:52.917Z,74.80
2017-11-01T09:54:21.868Z,73.80
2017-11-01T09:56:50.083Z,73.50
2017-11-01T09:59:19.038Z,72.80
2017-11-01T10:01:47.223Z,72.70
2017-11-01T10:04:15.613Z,72.80
2017-11-01T10:06:43.778Z,73.10
2017-11-01T10:09:11.955Z,73.80
2017-11-01T10:11:40.194Z,73.50
2017-11-01T10:14:08.392Z,73.00
2017-11-01T10:16:36.589Z,73.00
2017-11-01T10:19:04.832Z,72.90
2017-11-01T10:21:33.002Z,72.60
2017-11-01T10:24:01.177Z,71.90
2017-11-01T10:26:29.389Z,71.60
2017-11-01T10:28:57.578Z,72.10
2017-11-01T10:31:25.789Z,71.60
2017-11-01T10:33:53.983Z,71.50
2017-11-01T10:36:22.219Z,71.30
2017-11-01T10:38:51.203Z,70.50
2017-11-01T10:41:46.771Z,70.50
2017-11-01T10:44:21.395Z,70.60
2017-11-01T10:46:49.599Z,71.00
2017-11-01T10:49:17.790Z,70.60
2017-11-01T10:51:45.993Z,71.40
2017-11-01T10:54:14.221Z,70.50
2017-11-01T10:56:42.402Z,70.60
2017-11-01T10:59:11.383Z,70.30
2017-11-01T11:01:39.557Z,70.20
2017-11-01T11:04:07.742Z,70.00
2017-11-01T11:06:36.736Z,70.20
2017-11-01T11:09:05.729Z,70.60
2017-11-01T11:11:34.699Z,69.10
2017-11-01T11:14:02.888Z,69.10
2017-11-01T11:16:31.125Z,68.40
2017-11-01T11:18:59.314Z,69.40
2017-11-01T11:21:27.524Z,68.20
2017-11-01T11:23:56.477Z,69.20
2017-11-01T11:26:24.647Z,69.20
2017-11-01T11:28:52.863Z,68.40
2017-11-01T11:31:21.800Z,68.10
2017-11-01T11:33:50.128Z,68.00
2017-11-01T11:36:19.058Z,67.80
2017-11-01T11:38:47.283Z,67.80
2017-11-01T11:41:15.454Z,67.30
2017-11-01T11:43:43.690Z,66.90
2017-11-01T11:46:11.881Z,68.10
2017-11-01T11:48:40.217Z,66.80
2017-11-01T11:51:08.428Z,66.40
2017-11-01T11:53:36.622Z,66.00
2017-11-01T11:56:04.809Z,65.80
2017-11-01T11:58:33.008Z,64.10
2017-11-01T12:01:01.213Z,64.30
2017-11-01T12:03:29.410Z,64.50
2017-11-01T12:05:57.726Z,65.50
2017-11-01T12:08:26.694Z,63.80
2017-11-01T12:10:54.884Z,63.80
2017-11-01T12:13:23.894Z,63.10
2017-11-01T12:15:52.064Z,63.10
2017-11-01T12:18:20.414Z,62.20
2017-11-01T12:20:48.597Z,63.50
2017-11-01T12:23:16.772Z,63.40
2017-11-01T12:25:44.966Z,62.80
2017-11-01T12:28:13.188Z,62.30
2017-11-01T12:30:41.359Z,60.80
2017-11-01T12:33:09.588Z,61.20
2017-11-01T12:35:38.509Z,59.60
2017-11-01T12:38:06.878Z,59.60
2017-11-01T12:40:35.063Z,60.20
2017-11-01T12:43:03.286Z,60.40
2017-11-01T20:06:36.901Z,68.40
2017-11-01T20:09:05.112Z,68.50
2017-11-01T20:11:33.313Z,68.80
2017-11-01T20:14:01.543Z,68.90
2017-11-01T20:16:29.766Z,68.70
2017-11-01T20:18:57.948Z,68.70
2017-11-01T20:21:26.174Z,68.60
2017-11-01T20:23:54.363Z,68.80
2017-11-01T20:26:30.018Z,68.60
2017-11-01T20:29:05.442Z,68.50
2017-11-01T20:31:33.692Z,68.50
2017-11-01T20:34:01.865Z,68.40
2017-11-01T20:36:30.689Z,68.50
2017-11-01T20:38:59.036Z,68.50
2017-11-01T20:41:27.314Z,68.40
2017-11-01T20:43:56.341Z,68.20
2017-11-01T20:46:24.516Z,68.20
2017-11-01T20:48:52.709Z,68.20
2017-11-01T20:51:20.918Z,68.20
2017-11-01T20:53:49.189Z,68.20
2017-11-01T20:56:17.430Z,68.30
2017-11-01T20:58:45.618Z,68.20
2017-11-01T21:01:13.847Z,68.30
2017-11-01T21:03:42.074Z,68.40
2017-11-01T21:06:10.270Z,68.40
2017-11-01T21:08:38.457Z,68.40
2017-11-01T21:11:07.405Z,68.60
2017-11-01T21:13:35.653Z,68.60
2017-11-01T21:16:03.835Z,68.70
2017-11-01T21:18:32.037Z,68.90
2017-11-01T21:21:00.217Z,69.10
2017-11-01T21:23:28.433Z,69.10
2017-11-01T21:25:57.376Z,69.10
2017-11-01T21:28:25.563Z,69.10
2017-11-01T21:30:53.796Z,69.20
2017-11-01T21:33:21.986Z,69.30
2017-11-01T21:35:50.171Z,69.20
2017-11-01T21:38:18.351Z,69.20
2017-11-01T21:40:46.552Z,69.40
2017-11-01T21:43:14.773Z,69.50
2017-11-01T21:45:42.951Z,69.40
2017-11-01T21:48:11.284Z,69.20
2017-11-01T21:50:40.254Z,69.30
2017-11-01T21:53:08.470Z,69.30
2017-11-01T21:55:36.668Z,69.30
2017-11-01T21:58:04.874Z,69.40
2017-11-01T22:00:33.068Z,69.40
2017-11-01T22:03:01.284Z,69.40
2017-11-01T22:05:29.618Z,69.50
2017-11-01T22:07:57.862Z,69.40
2017-11-01T22:10:26.054Z,70.20
2017-11-01T22:12:54.244Z,69.40
2017-11-01T22:15:22.450Z,69.70
2017-11-01T22:17:50.630Z,69.70
2017-11-01T22:20:18.815Z,69.70
2017-11-01T22:22:47.130Z,69.80
2017-11-01T22:25:15.309Z,69.80
2017-11-01T22:27:43.500Z,69.60
2017-11-01T22:30:12.447Z,69.50
2017-11-01T22:32:40.613Z,69.50
2017-11-01T22:35:08.831Z,69.60
2017-11-01T22:37:36.989Z,69.40
2017-11-01T22:40:05.175Z,69.60
2017-11-01T22:42:34.165Z,69.90
2017-11-01T22:45:02.357Z,69.90
2017-11-01T22:47:30.551Z,69.60
2017-11-01T22:49:58.729Z,69.80
2017-11-01T22:52:26.913Z,69.90
2017-11-01T22:54:55.088Z,69.70
2017-11-01T22:57:23.331Z,69.80
2017-11-01T22:59:52.269Z,70.70
2017-11-01T23:02:20.426Z,70.70
2017-11-01T23:04:48.644Z,70.80
2017-11-01T23:07:16.841Z,70.60
2017-11-01T23:09:45.812Z,70.50
2017-11-01T23:12:14.023Z,70.40
2017-11-01T23:14:42.973Z,70.20
2017-11-01T23:17:11.286Z,70.20
2017-11-01T23:19:40.215Z,70.10
2017-11-01T23:22:08.392Z,70.10
2017-11-01T23:24:36.553Z,70.00
2017-11-01T23:27:04.758Z,70.00
2017-11-01T23:29:32.910Z,70.70
2017-11-01T23:32:01.229Z,69.80
2017-11-01T23:34:29.425Z,69.90
2017-11-01T23:36:58.361Z,70.00
2017-11-01T23:39:26.533Z,70.00
2017-11-01T23:41:54.787Z,70.10
2017-11-01T23:44:22.953Z,70.00
2017-11-01T23:46:51.130Z,70.10
2017-11-01T23:49:19.445Z,70.10
2017-11-01T23:51:47.632Z,70.20
2017-11-01T23:54:15.805Z,70.20
2017-11-01T23:56:43.990Z,70.20
2017-11-01T23:59:12.153Z,70.20
